Flight Track Log - Related Links

Times and Time Zones

All times are in EDT time to prevent confusion due to time zone crossing. See the EGF2819 flight status page for this flight to view local times or setup timezone preferences in your user account.

Time Position Orientation Groundspeed Altitude Reporting Facility
EDT Latitude Longitude Course Direction KTS MPH feet Rate Location/Type
Fri 08:24:43 AM 32.2553 -86.3475 270° West 223 257 3,300  Level Atlanta Center
Fri 08:25:43 AM 32.2472 -86.4358 264° West 276 318 5,400 2,500 Climbing Atlanta Center
Fri 08:26:00 AM 32.3344 -86.7407 270° West  Level Estimated
Fri 08:26:43 AM 32.2581 -86.5244 278° West 275 316 8,300  Level Atlanta Center
Fri 08:27:00 AM 32.3282 -86.8568 266° West  Level FlightAware Approximate
Fri 08:27:43 AM 32.2625 -86.6056 274° West 278 320 9,900  Level Atlanta Center
Fri 08:28:00 AM 32.3393 -86.9724 270° West  Level Estimated
Fri 08:28:43 AM 32.2689 -86.7064 274° West 298 343 11,400  Level Atlanta Center
Fri 08:29:43 AM 32.2747 -86.8172 274° West 321 369 13,100 1,650 Climbing Atlanta Center
Fri 08:30:43 AM 32.2806 -86.9281 274° West 337 388 14,700 1,400 Climbing Atlanta Center
Fri 08:31:43 AM 32.2883 -87.0411 275° West 348 400 15,900 1,400 Climbing Atlanta Center
Fri 08:32:43 AM 32.2958 -87.1569 274° West 354 407 17,500 1,500 Climbing Atlanta Center
Fri 08:33:43 AM 32.3011 -87.2725 273° West 354 407 18,900 1,600 Climbing Atlanta Center
Fri 08:34:43 AM 32.3103 -87.4008 275° West 356 410 20,700 1,650 Climbing Atlanta Center
Fri 08:35:43 AM 32.3175 -87.5167 274° West 361 415 22,200 1,250 Climbing Atlanta Center
Fri 08:36:43 AM 32.3247 -87.6297 274° West 361 415 23,200 1,000 Climbing Atlanta Center
Fri 08:37:43 AM 32.3275 -87.7456 272° West 361 415 24,200 951 Climbing Atlanta Center
Fri 08:39:27 AM 32.3375 -87.9428 273° West 355 409 25,800 951 Climbing Memphis Center
Fri 08:40:27 AM 32.3439 -88.0681 273° West 363 418 26,800 1,000 Climbing Memphis Center
Fri 08:41:27 AM 32.3525 -88.1933 275° West 379 436 27,800 1,100 Climbing Memphis Center
Fri 08:42:27 AM 32.3569 -88.3358 272° West 390 449 29,000 1,100 Climbing Memphis Center
Fri 08:43:27 AM 32.3653 -88.4683 274° West 395 455 30,000 950 Climbing Memphis Center
Fri 08:44:27 AM 32.3689 -88.5767 272° West 395 455 30,900 950 Climbing Memphis Center
Fri 08:45:27 AM 32.3750 -88.7092 273° West 395 455 31,900 1,000 Climbing Memphis Center
Fri 08:46:27 AM 32.3828 -88.8419 274° West 404 465 32,900 1,000 Climbing Memphis Center
Fri 08:47:27 AM 32.3886 -88.9772 273° West 404 465 33,900 550 Climbing Memphis Center
Fri 08:48:27 AM 32.3964 -89.1147 274° West 410 472 34,000 50 Climbing Memphis Center
Fri 08:49:27 AM 32.4039 -89.2575 274° West 424 488 34,000  Level Memphis Center
Fri 08:50:27 AM 32.4094 -89.4025 273° West 435 501 34,000  Level Memphis Center
Fri 08:51:27 AM 32.4186 -89.5453 274° West 440 506 34,000  Level Memphis Center
Fri 08:52:27 AM 32.4239 -89.6878 273° West 440 506 34,000  Level Memphis Center
Fri 08:53:27 AM 32.4308 -89.8331 273° West 440 506 34,000  Level Memphis Center
Fri 08:54:27 AM 32.4375 -89.9783 273° West 440 506 34,000  Level Memphis Center
Fri 08:55:27 AM 32.4442 -90.1236 273° West 440 506 34,000  Level Memphis Center
Fri 08:56:27 AM 32.4506 -90.2661 273° West 440 506 34,000  Level Memphis Center
Fri 08:57:27 AM 32.4569 -90.4114 273° West 440 506 34,000  Level Memphis Center
Fri 08:58:27 AM 32.4608 -90.5567 272° West 440 506 34,000  Level Memphis Center
Fri 08:59:27 AM 32.4669 -90.6972 273° West 440 506 34,000  Level Memphis Center
Fri 09:00:27 AM 32.4747 -90.8450 274° West 440 506 34,000  Level Memphis Center
Fri 09:01:27 AM 32.4803 -90.9903 273° West 440 506 34,000  Level Memphis Center
Fri 09:03:24 AM 32.4936 -91.2761 273° West 454 522 34,000  Level Fort Worth Center
Fri 09:04:24 AM 32.4986 -91.4186 272° West 454 522 34,000  Level Fort Worth Center
Fri 09:05:24 AM 32.5033 -91.5636 272° West 447 514 34,000  Level Fort Worth Center
Fri 09:06:24 AM 32.5078 -91.7086 272° West 447 514 34,000  Level Fort Worth Center
Fri 09:07:24 AM 32.5122 -91.8561 272° West 447 514 34,000  Level Fort Worth Center
Fri 09:08:24 AM 32.5167 -92.0036 272° West 447 514 34,000  Level Fort Worth Center
Fri 09:09:24 AM 32.5106 -92.1517 267° West 447 514 34,000  Level Fort Worth Center
Fri 09:10:24 AM 32.4997 -92.2978 265° West 447 514 34,000  Level Fort Worth Center
Fri 09:11:24 AM 32.4889 -92.4436 265° West 447 514 34,000  Level Fort Worth Center
Fri 09:12:24 AM 32.4819 -92.5867 267° West 442 509 34,000  Level Fort Worth Center
Fri 09:13:24 AM 32.4708 -92.7325 265° West 447 514 34,000  Level Fort Worth Center
Fri 09:14:24 AM 32.4594 -92.8808 265° West 447 514 34,000  Level Fort Worth Center
Fri 09:15:24 AM 32.4500 -93.0267 266° West 447 514 34,000  Level Fort Worth Center
Fri 09:16:24 AM 32.4386 -93.1772 265° West 452 520 34,000  Level Fort Worth Center
Fri 09:17:24 AM 32.4267 -93.3231 264° West 452 520 34,000  Level Fort Worth Center
Fri 09:18:24 AM 32.4153 -93.4858 265° West 447 514 34,000  Level Fort Worth Center
Fri 09:19:24 AM 32.4008 -93.6342 263° West 447 514 34,000  Level Fort Worth Center
Fri 09:20:24 AM 32.3947 -93.7769 267° West 452 520 34,000  Level Fort Worth Center
Fri 09:21:24 AM 32.3803 -93.9303 264° West 452 520 34,000  Level Fort Worth Center
Fri 09:22:24 AM 32.3697 -94.0781 265° West 452 520 34,000  Level Fort Worth Center
Fri 09:23:24 AM 32.3567 -94.2236 264° West 452 520 34,000  Level Fort Worth Center
Fri 09:24:24 AM 32.3458 -94.3717 265° West 452 520 34,000  Level Fort Worth Center
Fri 09:25:24 AM 32.3472 -94.5167 271° West 452 520 34,000  Level Fort Worth Center
Fri 09:26:24 AM 32.3503 -94.6642 271° West 452 520 34,000 -450 Level Fort Worth Center
Fri 09:27:24 AM 32.3556 -94.8139 272° West 452 520 33,100 -950 Descending Fort Worth Center
Fri 09:28:24 AM 32.3586 -94.9664 271° West 457 526 32,100 -1,000 Descending Fort Worth Center
Fri 09:29:24 AM 32.3617 -95.1211 271° West 469 540 31,100 -1,000 Descending Fort Worth Center
Fri 09:30:24 AM 32.3664 -95.2736 272° West 469 540 30,100 -1,000 Descending Fort Worth Center
Fri 09:31:24 AM 32.3689 -95.4308 271° West 474 545 29,100 -1,000 Descending Fort Worth Center
Fri 09:32:24 AM 32.3711 -95.5808 271° West 474 545 28,100 -1,500 Descending Fort Worth Center
Fri 09:33:24 AM 32.3714 -95.7358 270° West 474 545 26,100 -2,250 Descending Fort Worth Center
Fri 09:34:24 AM 32.3753 -95.8783 272° West 462 532 23,600 -2,500 Descending Fort Worth Center
Fri 09:35:24 AM 32.3789 -96.0236 272° West 445 512 21,100 -2,600 Descending Fort Worth Center
Fri 09:36:24 AM 32.3803 -96.1589 271° West 424 488 18,400 -2,450 Descending Fort Worth Center
Fri 09:37:24 AM 32.3794 -96.2942 270° West 412 474 16,200 -1,950 Descending Fort Worth Center
Fri 09:38:24 AM 32.4161 -96.4117 290° West 389 448 14,500 -2,050 Descending Fort Worth Center
Fri 09:39:24 AM 32.4711 -96.5122 303° West 382 440 12,100 -1,750 Descending Fort Worth Center
Fri 09:40:24 AM 32.5322 -96.6125 306° West 382 440 11,000 -550 Descending Fort Worth Center
Fri 09:41:24 AM 32.5956 -96.7081 308° West 371 427 11,000  Level Fort Worth Center
Fri 09:42:24 AM 32.6628 -96.7867 315° West 371 427 11,000  Level Fort Worth Center
Fri 09:43:24 AM 32.7300 -96.8628 316° Northwest 331 381 11,000 -250 Level Fort Worth Center
Fri 09:44:24 AM 32.7844 -96.9092 324° Northwest 274 315 10,500 -1,182 Descending Fort Worth Center
Fri 09:45:36 AM 32.8667 -96.9000 North 267 307 8,400 -1,500 Descending Dallas / Fort Worth TRACON
Fri 09:46:36 AM 32.9500 -96.9000 360° North 254 292 7,200 -1,350 Descending Dallas / Fort Worth TRACON
Fri 09:47:36 AM 33.0167 -96.9000 360° North 250 288 5,700 -1,550 Descending Dallas / Fort Worth TRACON
Fri 09:48:36 AM 33.0333 -96.9833 283° West 226 260 4,100 -1,750 Descending Dallas / Fort Worth TRACON
Fri 09:49:36 AM 33.0000 -97.0167 220° Southwest 207 238 2,200 -1,421 Descending Dallas / Fort Worth TRACON
Fri 09:50:30 AM 32.9500 -97.0167 180° South 129 148 1,400 -889 Descending Dallas / Fort Worth TRACON

Login

Don't have an account? Register now (free) for customized features, flight alerts, and more!